Tiempo atmosférico en la estación meteorológica de Granada Aeropuerto, Granada (567 m.)



Fecha
DESCASC
Temp. máxima en grados centígrados (hora)
DESCASC
Temp. mínima en grados centígrados (hora)
DESCASC
Temp. media en grados centígrados
DESCASC
Racha de viento máxima en m/sg (hora)
DESCASC
Velocidad máxima media en intervalos de 10 minutos(hora)
DESCASC
Precipitaciones diarias en mm
DESCASC
Precipitaciones de 00:00 a 06:00 en mm
DESCASC
Precipitaciones de 06:00 a 12:00 en mm
DESCASC
Precipitaciones de 12:00 a 18:00 en mm
DESCASC
Precipitaciones de 18:00 a 24:00 en mm
DESCASC
25-04-2019 16.6 (18:30) 9.5 (23:59) 13.1 14.44 (11:40) 9.72 (11:40) 3.6 0 3.6 0 0
24-04-2019 16.9 (15:20) 6.5 (02:20) 11.7 13.89 (15:50) 9.72 (15:50) 0 0 0 0 0
23-04-2019 15.4 (16:50) 6.3 (22:00) 10.8 15 (09:50) 8.89 (18:00) 12.3 0 10.8 1.3 0.2
22-04-2019 17.7 (18:50) 8.7 (00:00) 13.2 6.11 (13:10) 3.61 (08:00) 0 0 0 0 0
21-04-2019 16.2 (14:00) 9 (00:00) 12.6 8.89 (15:30) 5.56 (15:50) 0 0 0 0 0
20-04-2019 16.9 (15:10) 7.2 (00:00) 12 10.83 (17:20) 6.67 (17:20) 5.6 0 0 0 5.6
19-04-2019 17.2 (14:40) 5.6 (00:00) 11.4 8.89 (15:20) 4.17 (18:30) 0 0 0 0 0
18-04-2019 16.5 (16:30) 6.9 (00:00) 11.7 10.28 (17:40) 7.78 (17:50) 23.4 7.4 11.7 0.9 3.4
17-04-2019 28.5 (15:20) 7.6 (00:00) 18 17.5 (13:50) 11.67 (14:00) 0 0 0 0 0
16-04-2019 26.1 (16:20) 6.5 (00:00) 16.3 8.89 (19:10) 5.83 (00:10) 0 0 0 0 0
15-04-2019 27.7 (15:10) 7 (00:00) 17.4 15 (15:50) 10.56 (15:50) 0 0 0 0 0
14-04-2019 25.6 (17:50) 4.2 (00:00) 14.9 8.33 (19:10) 5.28 (19:10) 0 0 0 0 0
13-04-2019 22.3 (17:30) 2.1 (00:00) 12.2 9.17 (17:40) 6.11 (19:10) 0 0 0 0 0
12-04-2019 -- (--) -- (--) -- -- (--) -- (--) -- 0 0 0 --
11-04-2019 19.1 (17:00) 2.4 (00:00) 10.8 9.72 (18:00) 6.39 (18:20) 0 0 0 0 0
10-04-2019 15.2 (17:40) 6.9 (00:00) 11 11.39 (15:10) 7.5 (15:10) 0.1 0.1 0 0 0
09-04-2019 15.4 (15:50) 6.3 (00:00) 10.8 13.33 (20:10) 8.33 (17:50) 2 0 0 0.2 1.8
08-04-2019 15.6 (16:40) 9.6 (00:00) 12.6 8.33 (18:10) 5.28 (20:00) 1.1 0.1 0 0.2 0.8
07-04-2019 12.6 (14:40) 5.4 (00:00) 9 9.72 (01:50) 6.67 (01:50) 8.4 4.5 0.2 0.2 3.5
06-04-2019 12.7 (15:50) 5.5 (00:00) 9.1 14.44 (13:00) 8.89 (13:00) 13.9 0.1 2.2 2.2 9.4
05-04-2019 12.7 (17:00) 5.9 (00:00) 9.3 16.39 (17:40) 10.83 (17:50) 7.9 0 2.7 5.2 0
04-04-2019 18.5 (16:00) 2.3 (00:00) 10.4 11.67 (18:50) 7.22 (16:40) 0 0 0 0 0
03-04-2019 21 (16:50) 3.3 (00:00) 12.1 11.67 (17:50) 7.78 (16:50) 0 0 0 0 0
02-04-2019 20.1 (17:40) 3.6 (00:00) 11.9 8.33 (18:50) 5.83 (19:00) 0 0 0 0 0
01-04-2019 16.7 (14:40) 7.3 (00:00) 12 10.83 (15:10) 6.67 (15:20) 5.9 5.3 0.1 0.5 0
31-03-2019 14.7 (16:20) 9.4 (00:00) 12 8.33 (05:20) 4.17 (05:10) 8.2 6.1 0.4 1.7 0
30-03-2019 22.9 (15:10) 3.5 (00:00) 13.2 10.28 (16:10) 7.22 (16:10) 0 0 0 0 0
29-03-2019 20.9 (15:40) -0.4 (00:00) 10.2 9.17 (15:40) 5.83 (15:30) 0 0 0 0 0
28-03-2019 19.7 (16:20) 1.2 (00:00) 10.5 9.17 (19:20) 6.67 (19:00) 0 0 0 0 0
27-03-2019 20.1 (16:50) 5.8 (00:00) 13 10.83 (18:10) 6.67 (19:00) 0 0 0 0 0

Gráficas

Temp. máximas Temp. mínimas Temp. medias Precipitaciones Rachas de viento máximas Velocidades máximas media en intervalos de 10 minutos

Datos horarios

Fecha y hora oficial Temperatura (ºC) Velocidad del viento (km/h) Dirección del viento Racha (km/h) Dirección de racha Precipitación (mm) Presión (hPa) Tendencia (hPa) Humedad (%)
2019-04-25 23:00:00 10.6 17 Oeste 22 Oeste 0 954.3 2.7 80
2019-04-25 22:00:00 11.7 9 Oeste 21 Oeste 0 953.3 1.8 73
2019-04-25 21:00:00 12.8 15 Oeste 33 Oeste 0 952.2 1 66
2019-04-25 20:00:00 15.2 19 Oeste 28 Oeste 0 951.6 0.4 61
2019-04-25 19:00:00 15.1 12 Oeste 32 Oeste 0 951.5 0.5 64
2019-04-25 18:00:00 15.8 18 Oeste 35 Oeste 0 951.2 0.3 65
2019-04-25 17:00:00 15.1 19 Oeste 32 Oeste 0 951.2 -0.1 66
2019-04-25 16:00:00 14.8 17 Oeste 32 Oeste 0 951 -0.2 65
2019-04-25 15:00:00 14.4 13 Sudoeste 22 Oeste 0 950.9 0.1 64
2019-04-25 14:00:00 12.7 19 Oeste 37 Oeste 0 951.3 1.5 70
2019-04-25 13:00:00 12.6 21 Oeste 50 Oeste 0 951.2 2.7 72
2019-04-25 12:00:00 12.8 28 Oeste 52 Oeste 0 950.8 2.8 76
2019-04-25 11:00:00 11.2 34 Oeste 50 Oeste 3 949.8 2.5 91
2019-04-25 10:00:00 12.8 12 Oeste 18 Noroeste 0.6 948.5 1.6 95
2019-04-25 09:00:00 14 8 Noroeste 33 Sur 0 948 1.1 83
2019-04-25 08:00:00 13.5 11 Sur 21 Sudoeste 0 947.3 0.3 81
2019-04-25 07:00:00 13.9 17 Sudoeste 26 Sudoeste 0 946.9 -0.3 79
2019-04-25 06:00:00 13.6 18 Sur 30 Sudoeste 0 946.9 -0.9 78
2019-04-25 05:00:00 13.3 6 Sur 28 Sudoeste 0 947 -1.3 78
2019-04-25 04:00:00 13.5 5 Sur 32 Sudoeste 0 947.2 -1.3 77
2019-04-25 03:00:00 13.1 2 Sur 21 Sur 0 947.8 -0.9 77
2019-04-25 02:00:00 13 9 Sudeste 21 Sur 0 948.3 0.1 74
2019-04-25 01:00:00 12.8 8 Sur 22 Sur 0 948.5 0.8 67
2019-04-25 00:00:00 13 11 Sur 37 Sudoeste 0 948.7 1.6 56
2019-04-24 23:00:00 13.3 23 Sur 37 Sur 0 948.2 1.7 59
2019-04-24 22:00:00 13.4 20 Sudoeste 41 Sudoeste 0 947.7 1.2 61
2019-04-24 21:00:00 13.5 19 Sudoeste 39 Sudoeste 0 947.1 0.6 64
2019-04-24 20:00:00 14 19 Sudoeste 42 Sudoeste 0 946.5 0.2 65
2019-04-24 19:00:00 14.2 25 Sur 42 Sur 0 946.5 0.2 68
2019-04-24 18:00:00 14.2 25 Sur 46 Sur 0 946.5 0.3 69
2019-04-24 17:00:00 14.5 28 Sudoeste 48 Sudoeste 0 946.3 0 67
2019-04-24 16:00:00 14.8 34 Sudoeste 50 Sudoeste 0 946.3 0 64
2019-04-24 15:00:00 15.2 22 Sudoeste 39 Oeste 0 946.2 -0.1 64
2019-04-24 14:00:00 16.2 26 Sudoeste 42 Sudoeste 0 946.3 0.4 56
2019-04-24 13:00:00 15.4 27 Sudoeste 41 Oeste 0 946.3 0.7 55
2019-04-24 12:00:00 14.3 19 Sudoeste 35 Sudoeste 0 946.3 0.9 55
2019-04-24 11:00:00 12.9 19 Sudoeste 30 Oeste 0 945.9 1.3 58
2019-04-24 10:00:00 10.4 0 Calma 11 Norte 0 945.6 1.9 74
2019-04-24 09:00:00 7.8 0 Calma 4 Sudoeste 0 945.4 1.8 87
2019-04-24 08:00:00 6.7 0 Calma 5 Sudeste 0 944.6 1.2 87
2019-04-24 07:00:00 7.3 0 Calma 11 Oeste 0 943.7 0.4 88
2019-04-24 06:00:00 7.9 3 Sudoeste 8 Sudoeste 0 943.6 0 79
2019-04-24 05:00:00 7.8 5 Sudoeste 11 Sur 0 943.4 0.2 82
2019-04-24 04:00:00 7.5 5 Sur 9 Sur 0 943.3 0.2 84
2019-04-24 03:00:00 7.2 6 Sudeste 11 Sudeste 0 943.6 0.8 80
2019-04-24 02:00:00 6.8 8 Oeste 18 Oeste 0 943.2 0.9 77
2019-04-24 01:00:00 7.8 14 Oeste 21 Oeste 0 943.1 1.7 76
2019-04-24 00:00:00 7.9 11 Sudoeste 22 Oeste 0.1 942.8 2.6 79
2019-04-23 23:00:00 8.3 4 Sur 18 Sudeste 0 942.3 2.8 79
2019-04-23 22:00:00 6.4 9 Sudeste 17 Sur 0 941.4 2.7 92
2019-04-23 21:00:00 7.7 5 Oeste 22 Norte 0 940.2 2.3 82
2019-04-23 20:00:00 9.4 16 Oeste 39 Oeste 0.1 939.5 2.4 80
2019-04-23 19:00:00 11.8 23 Oeste 45 Noroeste 0 938.7 1.1 62
2019-04-23 18:00:00 13.1 32 Noroeste 48 Noroeste 0 937.9 0.3 60
2019-04-23 17:00:00 14.9 25 Oeste 42 Oeste 0 937.1 -1 45
2019-04-23 16:00:00 14.7 22 Oeste 37 Sudoeste 0 937.6 -0.7 48
2019-04-23 15:00:00 12.7 9 Oeste 32 Oeste 0 937.6 0 60
2019-04-23 14:00:00 10.6 8 Sudoeste 18 Oeste 0 938.1 1.3 70
2019-04-23 13:00:00 8.6 6 Sudoeste 32 Oeste 1.3 938.3 1.9 87
2019-04-23 12:00:00 8.3 15 Oeste 35 Oeste 2.6 937.6 2.4 93
2019-04-23 11:00:00 8.9 0 Calma 35 Oeste 4.3 936.8 2 95
2019-04-23 10:00:00 9.3 27 Oeste 54 Oeste 3.7 936.4 1.3 89
2019-04-23 09:00:00 10.7 2 Oeste 30 Oeste 0.2 935.2 -0.5 82
2019-04-23 08:00:00 9.4 0 Calma 8 Sudoeste 0 934.8 -1.6 89
2019-04-23 07:00:00 8.7 2 Noroeste 11 Sudeste 0 935.1 -1.6 88
2019-04-23 06:00:00 8.8 10 Sudeste 18 Este 0 935.7 -1.3 88
2019-04-23 05:00:00 8.7 7 Sur 13 Sudeste 0 936.4 -1.5 88
2019-04-23 04:00:00 9.3 6 Sudoeste 11 Sudoeste 0 936.7 -1.2 86
2019-04-23 03:00:00 9.7 0 Calma 17 Oeste 0 937 -1.2 83
2019-04-23 02:00:00 8.8 3 Oeste 13 Sur 0 937.9 -0.1 85
2019-04-23 01:00:00 9.1 11 Sur 13 Sur 0 937.9 0.4 83
2019-04-23 00:00:00 10.1 8 Sudeste 17 Oeste 0 938.2 1.1 82
2019-04-22 23:00:00 12.9 13 Oeste 21 Oeste 0 938 1.2 69
2019-04-22 22:00:00 13.9 4 Oeste 17 Oeste 0 937.5 0.5 72
2019-04-22 21:00:00 14.7 5 Sur 22 Sudeste 0 937.1 -0.1 71
2019-04-22 20:00:00 16.6 0 Calma 13 Sur 0 936.8 -0.7 60
2019-04-22 19:00:00 17.4 7 Este 15 Sudeste 0 937 -1.1 53
2019-04-22 18:00:00 16 3 Sur 11 Sur 0 937.2 -1.5 60
2019-04-22 17:00:00 16.3 5 Sur 13 Sur 0 937.5 -1.7 57
2019-04-22 16:00:00 15.8 2 Sur 13 Norte 0 938.1 -1.5 57
2019-04-22 15:00:00 15.9 0 Calma 9 Noroeste 0 938.7 -1.1 56
2019-04-22 14:00:00 14.3 4 Noroeste 22 Noroeste 0 939.2 -0.4 62
2019-04-22 13:00:00 13.9 8 Noroeste 18 Oeste 0 939.6 0.1 66
2019-04-22 12:00:00 13.1 4 Oeste 17 Oeste 0 939.8 0.7 69
2019-04-22 11:00:00 11.6 5 Oeste 15 Oeste 0 939.6 1 77
2019-04-22 10:00:00 10.4 7 Oeste 17 Oeste 0 939.5 1.3 82
2019-04-22 09:00:00 9.7 12 Oeste 18 Oeste 0 939.1 0.9 87
2019-04-22 08:00:00 8.9 13 Oeste 17 Oeste 0 938.6 0.1 90
2019-04-22 07:00:00 8.7 4 Oeste 15 Oeste 0 938.2 -0.4 92
2019-04-22 06:00:00 9.1 6 Oeste 13 Oeste 0 938.2 -1.2 92
2019-04-22 05:00:00 9.2 4 Oeste 13 Noroeste 0 938.5 -1.5 96
2019-04-22 04:00:00 9.5 6 Oeste 11 Oeste 0 938.6 -1.8 94
2019-04-22 03:00:00 10.1 6 Oeste 11 Oeste 0 939.4 -1.7 95
2019-04-22 02:00:00 10.5 4 Oeste 13 Oeste 0 940 -1.3 91
2019-04-22 01:00:00 10.7 7 Oeste 13 Oeste 0 940.4 -0.4 92
2019-04-22 00:00:00 10.8 7 Oeste 11 Oeste 0 941.1 0.7 92
2019-04-21 23:00:00 11.1 5 Oeste 18 Oeste 0 941.3 1.2 92
2019-04-21 22:00:00 11.3 11 Oeste 18 Oeste 0 940.8 0.6 90
2019-04-21 21:00:00 12.8 7 Noroeste 17 Noroeste 0 940.4 0.3 74
2019-04-21 20:00:00 13.6 7 Noroeste 18 Noroeste 0 940.1 -0.2 73
2019-04-21 19:00:00 14.1 11 Norte 21 Norte 0 940.2 -0.4 70
2019-04-21 18:00:00 15.1 14 Nordeste 22 Norte 0 940.1 -0.8 63
2019-04-21 17:00:00 15.7 12 Norte 32 Nordeste 0 940.3 -0.9 60
2019-04-21 16:00:00 15.5 19 Nordeste 32 Nordeste 0 940.6 -1.1 61
2019-04-21 15:00:00 15.2 15 Nordeste 24 Nordeste 0 940.9 -1.3 61
2019-04-21 14:00:00 16.1 3 Sudoeste 15 Nordeste 0 941.2 -1.2 58
2019-04-21 13:00:00 15.5 4 Este 17 Este 0 941.7 -0.9 61
2019-04-21 12:00:00 13.5 10 Nordeste 24 Nordeste 0 942.2 -0.6 67
2019-04-21 11:00:00 12.3 14 Nordeste 24 Nordeste 0 942.4 -0.3 74
2019-04-21 10:00:00 11.6 14 Nordeste 22 Nordeste 0 942.6 -0.4 76
2019-04-21 09:00:00 11.2 7 Nordeste 21 Nordeste 0 942.8 -0.4 78
2019-04-21 08:00:00 10.3 6 Norte 18 Nordeste 0 942.7 -1.1 82
2019-04-21 07:00:00 9.1 3 Oeste 13 Oeste 0 943 -1.4 93
2019-04-21 06:00:00 9.3 6 Sudoeste 11 Sudoeste 0 943.2 -2 94
2019-04-21 05:00:00 9.3 6 Oeste 8 Oeste 0 943.8 -2.2 94
2019-04-21 04:00:00 10 4 Oeste 8 Oeste 0 944.4 -1.9 92
2019-04-21 03:00:00 10.7 6 Sudoeste 13 Este 0 945.2 -1.6 93
2019-04-21 02:00:00 10.9 0 Calma 15 Nordeste 0 946 -1 89
2019-04-21 01:00:00 11.2 6 Nordeste 15 Nordeste 0 946.3 -0.3 85
2019-04-21 00:00:00 11.8 4 Norte 17 Oeste 0 946.8 0.8 85
2019-04-20 23:00:00 11.5 5 Oeste 8 Noroeste 1.2 947 1.7 96
2019-04-20 22:00:00 11.9 3 Oeste 11 Oeste 1.9 946.6 2.2 95
2019-04-20 21:00:00 12.3 0 Calma 8 Norte 1.2 946 1.8 92
2019-04-20 20:00:00 13.2 3 Noroeste 24 Sudoeste 0.9 945.3 1.3 82
2019-04-20 19:00:00 14.9 11 Sudoeste 24 Sudoeste 0.4 944.4 0.2 74
2019-04-20 18:00:00 15.2 10 Este 39 Nordeste 0 944.2 -0.2 73
2019-04-20 17:00:00 15.8 15 Nordeste 37 Nordeste 0 944 -1 70
2019-04-20 16:00:00 16.6 18 Nordeste 33 Nordeste 0 944.2 -1.1 64
2019-04-20 15:00:00 16.4 7 Nordeste 26 Norte 0 944.4 -1.1 61
2019-04-20 14:00:00 15.9 8 Norte 18 Nordeste 0 945 -0.2 63
2019-04-20 13:00:00 14.8 3 Norte 13 Nordeste 0 945.3 0.1 63
2019-04-20 12:00:00 13.7 3 Noroeste 13 Oeste 0 945.5 0.5 67
2019-04-20 11:00:00 13.5 4 Nordeste 17 Nordeste 0 945.2 0 66
2019-04-20 10:00:00 11.4 5 Norte 24 Norte 0 945.2 0.3 77
2019-04-20 09:00:00 9.3 2 Oeste 21 Noroeste 0 945 -0.4 89
2019-04-20 08:00:00 8.1 4 Oeste 21 Oeste 0 945.2 -1.2 95
2019-04-20 07:00:00 7.9 10 Oeste 15 Oeste 0 944.9 -2.2 96
2019-04-20 06:00:00 7.8 10 Oeste 13 Oeste 0 945.4 -2.7 96
2019-04-20 05:00:00 7.4 7 Oeste 11 Oeste 0 946.4 -2 96
2019-04-20 04:00:00 7.8 0 Calma 15 Sudoeste 0 947.1 -1.9 95
2019-04-20 03:00:00 8.1 0 Calma 5 Oeste 0 948.1 -1.4 92
2019-04-20 02:00:00 8.3 4 Noroeste 17 Oeste 0 948.4 -0.9 92
2019-04-20 01:00:00 9.3 6 Sudoeste 15 Oeste 0 949 -0.2 93
2019-04-20 00:00:00 10.2 4 Oeste 5 Oeste 0 949.5 1 94
2019-04-19 23:00:00 10.9 2 Norte 5 Norte 0 949.3 1.2 87
2019-04-19 22:00:00 11.9 3 Nordeste 8 Nordeste 0 949.2 1.4 85
2019-04-19 21:00:00 12.7 4 Norte 5 Norte 0 948.5 1.1 82
2019-04-19 20:00:00 13.4 4 Sudoeste 13 Oeste 0 948.1 0.8 71
2019-04-19 19:00:00 12.7 9 Oeste 22 Oeste 0 947.8 0.1 78
2019-04-19 18:00:00 13 11 Oeste 17 Oeste 0 947.4 0.1 75
2019-04-19 17:00:00 13.6 5 Sudoeste 17 Oeste 0 947.3 0 70
2019-04-19 16:00:00 13.1 4 Norte 32 Sur 0 947.7 -0.5 65
2019-04-19 15:00:00 16.1 2 Noroeste 21 Noroeste 0 947.3 -1.4 50
2019-04-19 14:00:00 16.7 4 Sudoeste 13 Sur 0 947.3 -1.4 51
2019-04-19 13:00:00 14.2 4 Nordeste 13 Norte 0 948.2 -0.5 68
2019-04-19 12:00:00 12.7 3 Noroeste 17 Oeste 0 948.7 0 73
2019-04-19 11:00:00 10.4 5 Oeste 13 Norte 0 948.7 0.2 86
2019-04-19 10:00:00 8.6 3 Noroeste 8 Noroeste 0 948.7 0.8 91
2019-04-19 09:00:00 7.6 0 Calma 4 Norte 0 948.7 0.9 97
2019-04-19 08:00:00 7 0 Calma 4 Sudoeste 0 948.5 0.3 99
2019-04-19 07:00:00 6.7 0 Calma 8 Este 0 947.9 -0.4 99
2019-04-19 06:00:00 6 0 Calma 5 Oeste 0 947.8 -0.8 98
2019-04-19 05:00:00 5.7 5 Sur 11 Sudeste 0 948.2 -1 98
2019-04-19 04:00:00 6.1 3 Sudeste 8 Este 0 948.3 -0.8 98
2019-04-19 03:00:00 6.5 4 Oeste 8 Oeste 0 948.6 0.1 97
2019-04-19 02:00:00 6.6 3 Sudoeste 8 Sudoeste 0 949.2 0.7 97
2019-04-19 01:00:00 6.7 3 Sur 5 Sudoeste 0 949.1 0.7 97
2019-04-19 00:00:00 7 3 Noroeste 8 Norte 0 948.5 0.4 96
2019-04-18 23:00:00 7.9 3 Sur 8 Sur 0 948.5 1 95
2019-04-18 22:00:00 9 6 Sudeste 11 Sudeste 0 948.4 1.5 92
2019-04-18 21:00:00 9.2 2 Oeste 13 Noroeste 0.4 948.1 2 92
2019-04-18 20:00:00 9.2 13 Noroeste 28 Oeste 1.3 947.5 2.5 92
2019-04-18 19:00:00 10.7 17 Oeste 30 Sudoeste 1.7 946.9 1.3 85
2019-04-18 18:00:00 10.7 20 Sudoeste 37 Sudoeste 0.8 946.1 0 88
2019-04-18 17:00:00 14.3 8 Sudoeste 33 Oeste 0.1 945 -0.9 65
2019-04-18 16:00:00 16 13 Oeste 22 Oeste 0 945.6 -1.4 54
2019-04-18 15:00:00 16.2 12 Oeste 18 Oeste 0 946.1 -1.3 57
2019-04-18 14:00:00 14.5 2 Este 15 Oeste 0 945.9 -1.7 66
2019-04-18 13:00:00 14 3 Nordeste 11 Nordeste 0 947 -0.9 66
2019-04-18 12:00:00 11.7 0 Calma 11 Noroeste 0 947.4 -0.2 77
2019-04-18 11:00:00 10 3 Nordeste 18 Este 0.1 947.6 -0.1 86
2019-04-18 10:00:00 9.3 15 Sudeste 30 Este 2.2 947.9 1.1 93
2019-04-18 09:00:00 9.5 17 Este 22 Este 3.7 947.6 1.3 95
2019-04-18 08:00:00 9.9 4 Sudeste 15 Sudoeste 2.5 947.7 1.6 93
2019-04-18 07:00:00 10 13 Oeste 30 Oeste 3.2 946.8 0 94
2019-04-18 06:00:00 10.9 20 Oeste 32 Oeste 4.7 946.3 -1.2 97
2019-04-18 05:00:00 11.2 4 Sudoeste 17 Oeste 0.9 946.1 -2.5 97
2019-04-18 04:00:00 11.3 3 Sudoeste 17 Noroeste 1 946.8 -2.2 95
2019-04-18 03:00:00 11.7 12 Este 30 Este 0.8 947.5 -0.7 93
2019-04-18 02:00:00 11.9 9 Sudoeste 32 Oeste 0 948.6 -0.1 87
2019-04-18 01:00:00 13.3 17 Oeste 32 Oeste 0 949 1.6 76
2019-04-18 00:00:00 14.5 5 Sur 33 Oeste 0 948.2 2 73
2019-04-17 23:00:00 15.2 16 Sudoeste 32 Oeste 0 948.7 4.3 69
2019-04-17 22:00:00 15.7 18 Sudoeste 33 Sudoeste 0 947.4 4.8 67
2019-04-17 21:00:00 16.6 21 Oeste 52 Oeste 0 946.2 4.6 64
2019-04-17 20:00:00 19.5 37 Oeste 54 Oeste 0 944.4 2.4 51
2019-04-17 19:00:00 23.9 30 Oeste 50 Sur 0 942.6 0 31
2019-04-17 18:00:00 26.2 30 Sur 54 Sur 0 941.6 -1.9 25
2019-04-17 17:00:00 26.7 34 Sur 61 Sur 0 942 -2 25
2019-04-17 16:00:00 28.1 37 Sur 63 Sudeste 0 942.6 -2.1 23
2019-04-17 15:00:00 27.3 35 Sur 59 Sur 0 943.5 -2.3 23
2019-04-17 14:00:00 26.9 42 Sur 63 Sur 0 944 -2.6 23
2019-04-17 13:00:00 25 36 Sur 54 Sur 0 944.7 -2.3 26
2019-04-17 12:00:00 21.8 9 Sudoeste 26 Sudoeste 0 945.8 -1.6 37
2019-04-17 11:00:00 17.4 10 Norte 17 Norte 0 946.6 -1.3 54
2019-04-17 10:00:00 15 4 Noroeste 11 Norte 0 947 -0.9 62
2019-04-17 09:00:00 11.5 0 Calma 17 Este 0 947.4 -0.8 72
2019-04-17 08:00:00 7.7 4 Sudoeste 9 Sudoeste 0 947.9 -0.6 88
2019-04-17 07:00:00 7.7 7 Sudoeste 8 Sudoeste 0 947.9 -1 89
2019-04-17 06:00:00 8.1 3 Noroeste 8 Noroeste 0 948.2 -1.2 89
2019-04-17 05:00:00 10 3 Sur 13 Nordeste 0 948.5 -0.9 81
2019-04-17 04:00:00 11.1 4 Nordeste 18 Sudeste 0 948.9 -0.3 73
2019-04-17 03:00:00 10.7 12 Sur 17 Sur 0 949.4 -0.1 75
2019-04-17 02:00:00 10.4 4 Sudoeste 13 Oeste 0 949.4 -0.1 72
2019-04-17 01:00:00 11.2 2 Sur 13 Sur 0 949.2 0.2 65
2019-04-17 00:00:00 12.6 4 Oeste 11 Este 0 949.5 0.9 58
2019-04-16 23:00:00 14.7 9 Este 15 Este 0 949.5 1.3 54
2019-04-16 22:00:00 16.6 3 Sudoeste 21 Sudoeste 0 949 0.8 34
2019-04-16 21:00:00 20.4 12 Sudoeste 24 Sur 0 948.6 0.3 27
2019-04-16 20:00:00 23.7 10 Sur 32 Sudeste 0 948.2 -0.3 24
2019-04-16 19:00:00 25.1 13 Sur 30 Sur 0 948.2 -0.9 20
2019-04-16 18:00:00 25.8 12 Sudoeste 28 Sur 0 948.3 -1.3 19
2019-04-16 17:00:00 25.8 18 Sur 30 Sur 0 948.5 -2.1 22
2019-04-16 16:00:00 25.5 12 Oeste 28 Oeste 0 949.1 -2.2 35
2019-04-16 15:00:00 23.5 4 Noroeste 18 Norte 0 949.6 -2.3 39
2019-04-16 14:00:00 21.5 6 Norte 18 Noroeste 0 950.6 -1.5 44
2019-04-16 13:00:00 20.2 4 Noroeste 15 Noroeste 0 951.3 -1.2 48
2019-04-16 12:00:00 18.6 2 Sur 11 Sur 0 951.9 -0.5 56
2019-04-16 11:00:00 15.7 0 Calma 8 Nordeste 0 952.1 0.2 69
2019-04-16 10:00:00 13.4 0 Calma 11 Este 0 952.5 0.7 80
2019-04-16 09:00:00 10.5 3 Nordeste 11 Sudeste 0 952.4 0.4 89
2019-04-16 08:00:00 6.9 4 Oeste 8 Oeste 0 951.9 0 95
2019-04-16 07:00:00 7.6 0 Calma 5 Este 0 951.8 -0.4 94
2019-04-16 06:00:00 8.6 4 Sur 11 Sudoeste 0 952 -0.6 94
2019-04-16 05:00:00 9.8 2 Sudeste 11 Noroeste 0 951.9 -0.6 92
2019-04-16 04:00:00 11.7 5 Sudoeste 8 Sudoeste 0 952.2 -0.3 87
2019-04-16 03:00:00 11 3 Sudoeste 11 Sudoeste 0 952.6 0.4 86
2019-04-16 02:00:00 12.3 9 Sudoeste 21 Oeste 0 952.5 1.1 80
2019-04-16 01:00:00 13.5 17 Oeste 28 Oeste 0 952.5 1.9 75
2019-04-16 00:00:00 14.7 21 Oeste 39 Oeste 0 952.2 3 70
2019-04-15 23:00:00 16.4 25 Oeste 41 Oeste 0 951.4 2.7 55
2019-04-15 22:00:00 16.9 17 Oeste 28 Noroeste 0 950.6 2.5 45
2019-04-15 21:00:00 19.4 18 Oeste 39 Oeste 0 949.2 1.7 32
2019-04-15 20:00:00 22.4 27 Oeste 46 Oeste 0 948.7 1.3 28
2019-04-15 19:00:00 24.3 26 Oeste 37 Noroeste 0 948.1 0.5 32
2019-04-15 18:00:00 26.6 22 Sudoeste 42 Sudoeste 0 947.5 -0.3 26
2019-04-15 17:00:00 26.9 26 Sudoeste 52 Sudoeste 0 947.4 -0.9 23
2019-04-15 16:00:00 27.2 35 Sudoeste 54 Sudoeste 0 947.6 -1.6 22
2019-04-15 15:00:00 27.3 30 Sudoeste 45 Sudoeste 0 947.8 -1.6 23
2019-04-15 14:00:00 25.8 15 Oeste 32 Oeste 0 948.3 -0.9 30
2019-04-15 13:00:00 22 0 Calma 11 Noroeste 0 949.2 0 47
2019-04-15 12:00:00 17.9 0 Calma 4 Sudoeste 0 949.4 0.3 62
2019-04-15 11:00:00 16.6 0 Calma 5 Oeste 0 949.2 0.4 67
2019-04-15 10:00:00 12.7 0 Calma 8 Norte 0 949.2 0.4 79
2019-04-15 09:00:00 9.6 3 Oeste 5 Sudeste 0 949.1 0.2 93
2019-04-15 08:00:00 7.2 2 Sudeste 5 Sur 0 948.8 -0.6 93
2019-04-15 07:00:00 8.1 4 Sudoeste 8 Sudoeste 0 948.8 -0.9 92
2019-04-15 06:00:00 8.3 0 Calma 5 Oeste 0 948.9 -1.3 92
2019-04-15 05:00:00 9 0 Calma 5 Sur 0 949.4 -1.1 92
2019-04-15 04:00:00 9.6 3 Sur 5 Sur 0 949.7 -1.3 89
2019-04-15 03:00:00 10.7 6 Sudoeste 8 Sudoeste 0 950.2 -0.9 89
2019-04-15 02:00:00 11.9 0 Calma -- -- 0 950.5 -0.3 84
2019-04-15 01:00:00 13.3 0 Calma 4 Sudeste 0 951 0.4 77
2019-04-15 00:00:00 15 0 Calma 8 Sur 0 951.1 1 68
2019-04-14 23:00:00 15.6 6 Sur 15 Sur 0 950.8 1.1 66
2019-04-14 22:00:00 17 6 Sur 15 Sur 0 950.6 1.1 60
2019-04-14 21:00:00 19 8 Oeste 21 Oeste 0 950.1 0.6 53
2019-04-14 20:00:00 22.5 16 Oeste 30 Oeste 0 949.7 -0.4 42
2019-04-14 19:00:00 23.7 15 Oeste 26 Oeste 0 949.5 -1.3 39
2019-04-14 18:00:00 25.5 12 Oeste 22 Oeste 0 949.5 -1.9 35
2019-04-14 17:00:00 25.2 14 Oeste 22 Oeste 0 950.1 -1.7 36
2019-04-14 16:00:00 24.3 6 Noroeste 18 Noroeste 0 950.8 -1.8 36
2019-04-14 15:00:00 23.6 4 Oeste 21 Oeste 0 951.4 -1.9 37
2019-04-14 14:00:00 22.1 5 Oeste 15 Noroeste 0 951.8 -1.8 38
2019-04-14 13:00:00 19.9 3 Norte 11 Norte 0 952.6 -1.1 43
2019-04-14 12:00:00 17.2 0 Calma 8 Norte 0 953.3 -0.5 48
2019-04-14 11:00:00 13.9 0 Calma 5 Norte 0 953.6 -0.1 59
2019-04-14 10:00:00 10.5 0 Calma 5 Noroeste 0 953.7 0.4 73
2019-04-14 09:00:00 7.1 0 Calma 8 Sur 0 953.8 0.5 84
2019-04-14 08:00:00 4.7 3 Sudoeste 8 Oeste 0 953.7 0 93
2019-04-14 07:00:00 4.5 4 Oeste 5 Sudoeste 0 953.3 -0.4 91
2019-04-14 06:00:00 5.3 0 Calma 5 Sudoeste 0 953.3 -0.6 89
2019-04-14 05:00:00 5.7 3 Sudoeste 5 Sudoeste 0 953.7 -0.6 87
2019-04-14 04:00:00 5.8 0 Calma 11 Sudeste 0 953.7 -0.7 85
2019-04-14 03:00:00 6.7 6 Sudeste 11 Sudeste 0 953.9 -0.6 81
2019-04-14 02:00:00 7.9 0 Calma 8 Sudoeste 0 954.3 0.1 75
2019-04-14 01:00:00 8.6 0 Calma 5 Sudoeste 0 954.4 0.7 73
2019-04-14 00:00:00 10.5 3 Sudoeste 5 Sudoeste 0 954.5 1.6 65
2019-04-13 23:00:00 11.9 3 Sudoeste 15 Sudoeste 0 954.2 2.2 57
2019-04-13 22:00:00 14.4 6 Sudoeste 21 Oeste 0 953.7 2.2 47
2019-04-13 21:00:00 16.6 12 Oeste 28 Oeste 0 952.9 1.6 40
2019-04-13 20:00:00 19.8 21 Oeste 32 Oeste 0 952 0.4 33
2019-04-13 19:00:00 21.4 19 Oeste 32 Oeste 0 951.5 -0.7 32
2019-04-13 18:00:00 22.1 19 Oeste 33 Oeste 0 951.3 -1.3 32
2019-04-13 17:00:00 21.9 9 Oeste 24 Oeste 0 951.6 -1.5 31
2019-04-13 16:00:00 21.4 4 Sudoeste 22 Oeste 0 952.2 -1.4 33
2019-04-13 15:00:00 20.6 10 Sudoeste 24 Noroeste 0 952.6 -1.6 33
2019-04-13 14:00:00 19.5 6 Noroeste 17 Noroeste 0 953.1 -1.5 35
2019-04-13 13:00:00 18.3 4 Este 11 Este 0 953.6 -0.8 37
2019-04-13 12:00:00 15.9 0 Calma 5 Sudeste 0 954.2 0 48
2019-04-13 11:00:00 12.3 0 Calma 5 Nordeste 0 954.6 0.9 60
2019-04-13 10:00:00 8.3 0 Calma 5 Norte 0 954.4 1.2 78
2019-04-13 09:00:00 5.3 0 Calma 8 Oeste 0 954.2 1.4 89
2019-04-13 08:00:00 2.2 4 Sudoeste 5 Sudoeste 0 953.7 1.1 93
2019-04-13 07:00:00 2.6 0 Calma 5 Sudoeste 0 953.2 0.5 90
2019-04-13 06:00:00 3.5 5 Sudoeste 8 Sudoeste 0 952.8 -0.2 90
2019-04-13 05:00:00 4 4 Oeste 8 Oeste 0 952.6 -0.7 88
2019-04-13 04:00:00 5.4 2 Oeste 8 Noroeste 0 952.7 -0.4 82
2019-04-13 03:00:00 6.9 0 Calma 11 Sur 0 953 0.4 75
2019-04-13 02:00:00 5.6 4 Oeste 8 Oeste 0 953.3 1 84
2019-04-13 01:00:00 6.9 3 Oeste 8 Sur 0 953.1 1.6 78
2019-04-13 00:00:00 8.3 5 Sudoeste 11 Sudoeste 0 952.6 -- 72
2019-04-12 23:00:00 9.6 4 Sudoeste 8 Sudoeste 0 952.3 -- 66
2019-04-12 22:00:00 11.2 4 Sudoeste 11 Noroeste 0 951.5 -- 58
2019-04-12 21:00:00 -- -- -- -- -- -- -- -- --
2019-04-12 20:00:00 -- -- -- -- -- -- -- -- --
2019-04-12 19:00:00 -- -- -- -- -- -- -- -- --
2019-04-12 18:00:00 19.8 17 Noroeste 32 Noroeste 0 949.8 -1.5 30
2019-04-12 17:00:00 20.1 15 Oeste 30 Oeste 0 950 -1.8 31
2019-04-12 16:00:00 19.1 5 Noroeste 24 Sudoeste 0 950.8 -1.5 34
2019-04-12 15:00:00 18.7 8 Norte 21 Noroeste 0 951.3 -1.5 33
2019-04-12 14:00:00 17.6 7 Noroeste 28 Oeste 0 951.8 -1.1 36
2019-04-12 13:00:00 17.1 2 Sur 8 Sur 0 952.3 -0.6 34
2019-04-12 12:00:00 13.7 0 Calma 8 Norte 0 952.8 0 56
2019-04-12 11:00:00 11.1 0 Calma 5 Este 0 952.9 0.5 67
2019-04-12 10:00:00 7.4 0 Calma 5 Noroeste 0 952.9 1 81
2019-04-12 09:00:00 4.5 0 Calma 2 Sur 0 952.8 1.1 91
2019-04-12 08:00:00 1.7 0 Calma 5 Sur 0 952.4 0.7 93
2019-04-12 07:00:00 2.5 0 Calma 8 Sudoeste 0 951.9 0.1 93
2019-04-12 06:00:00 3.1 5 Sudoeste 8 Sudoeste 0 951.7 -0.4 93
2019-04-12 05:00:00 3.3 0 Calma 8 Oeste 0 951.7 -0.6 93
2019-04-12 04:00:00 4.5 4 Sur 8 Sur 0 951.8 -0.5 88
2019-04-12 03:00:00 5.8 3 Sur 11 Sur 0 952.1 -0.3 83
2019-04-12 02:00:00 6.6 5 Oeste 8 Oeste 0 952.3 0.3 82
2019-04-12 01:00:00 9.8 3 Nordeste 15 Nordeste 0 952.3 0.8 63
2019-04-12 00:00:00 10.5 3 Nordeste 21 Nordeste 0 952.4 1.6 61
2019-04-11 23:00:00 9.3 0 Calma 5 Noroeste 0 952 1.8 69
2019-04-11 22:00:00 11.2 3 Noroeste 13 Norte 0 951.5 1.6 60
2019-04-11 21:00:00 13.2 9 Norte 22 Norte 0 950.8 1 49
2019-04-11 20:00:00 16.1 17 Norte 35 Norte 0 950.2 0.6 35
2019-04-11 19:00:00 17.2 21 Norte 35 Norte 0 949.9 -0.1 37
2019-04-11 18:00:00 17.8 21 Norte 35 Norte 0 949.8 -0.6 39
2019-04-11 17:00:00 18.8 15 Norte 33 Norte 0 949.6 -1.1 38
2019-04-11 16:00:00 17.6 9 Noroeste 18 Norte 0 950 -1.4 43
2019-04-11 15:00:00 17.6 10 Norte 22 Nordeste 0 950.4 -1.4 40
2019-04-11 14:00:00 16.5 7 Norte 30 Nordeste 0 950.7 -1.3 44
2019-04-11 13:00:00 15.2 8 Norte 18 Norte 0 951.4 -0.8 53
2019-04-11 12:00:00 13.2 3 Norte 17 Nordeste 0 951.8 -0.3 64
2019-04-11 11:00:00 10.8 4 Norte 8 Nordeste 0 952 0.4 75
2019-04-11 10:00:00 8.4 0 Calma 5 Norte 0 952.2 1 83
2019-04-11 09:00:00 5 2 Noroeste 5 Noroeste 0 952.1 0.9 94
2019-04-11 08:00:00 2.6 0 Calma 5 Sur 0 951.6 0.5 95
2019-04-11 07:00:00 2.9 5 Sur -- -- 0 951.2 0.4 94
2019-04-11 06:00:00 3.7 5 Sudoeste 8 Sudoeste 0 951.2 0.2 91
2019-04-11 05:00:00 5 3 Sudoeste 11 Noroeste 0 951.1 0 92
2019-04-11 04:00:00 5.2 3 Oeste 11 Sur 0 950.8 -0.3 91
2019-04-11 03:00:00 7.2 0 Calma 5 Oeste 0 951 0.1 83
2019-04-11 02:00:00 7 0 Calma 5 Sudoeste 0 951.1 0.2 90
2019-04-11 01:00:00 7.1 0 Calma 5 Oeste 0 951.1 0.8 89
2019-04-11 00:00:00 8.3 3 Sur 5 Sur 0 950.9 1.3 86
2019-04-10 23:00:00 8.7 0 Calma 8 Este 0 950.9 1.7 83
2019-04-10 22:00:00 10.3 3 Sudoeste 15 Oeste 0 950.3 1.1 75
2019-04-10 21:00:00 11.8 12 Oeste 26 Oeste 0 949.6 0.5 66
2019-04-10 20:00:00 13.4 13 Noroeste 22 Noroeste 0 949.2 -0.2 59
2019-04-10 19:00:00 13.8 17 Oeste 24 Oeste 0 949.2 -0.5 57
2019-04-10 18:00:00 13.7 16 Noroeste 30 Norte 0 949.1 -0.8 54
2019-04-10 17:00:00 14 17 Norte 33 Noroeste 0 949.4 -0.6 52
2019-04-10 16:00:00 14.2 18 Noroeste 41 Norte 0 949.7 -0.7 48
2019-04-10 15:00:00 13 15 Norte 33 Norte 0 949.9 -0.9 51
2019-04-10 14:00:00 12.5 17 Oeste 26 Oeste 0 950 -1.1 62
2019-04-10 13:00:00 12.4 8 Oeste 21 Noroeste 0 950.4 -0.5 61
2019-04-10 12:00:00 11.5 10 Oeste 18 Oeste 0 950.8 0.1 66
2019-04-10 11:00:00 9.5 8 Oeste 22 Noroeste 0 951.1 0.7 81
2019-04-10 10:00:00 8.3 8 Noroeste 13 Noroeste 0 950.9 0.8 90
2019-04-10 09:00:00 7.9 7 Oeste 13 Oeste 0 950.7 0.5 90
2019-04-10 08:00:00 7.1 6 Oeste 17 Oeste 0 950.4 -0.3 93
2019-04-10 07:00:00 7.4 6 Oeste 13 Oeste 0 950.1 -0.5 95
2019-04-10 06:00:00 8.1 6 Oeste 13 Oeste 0.1 950.2 -0.8 91
2019-04-10 05:00:00 8.6 2 Noroeste 15 Oeste 0 950.7 -0.7 93
2019-04-10 04:00:00 9 7 Sudoeste 15 Sudoeste 0 950.6 -0.9 94
2019-04-10 03:00:00 8.9 0 Calma 8 Sudeste 0 951 -0.6 94
2019-04-10 02:00:00 8.9 0 Calma 18 Oeste 0 951.4 -0.2 94
2019-04-10 01:00:00 9.3 15 Oeste 26 Oeste 0 951.5 0.2 93
2019-04-10 00:00:00 9.1 19 Oeste 26 Oeste 0.2 951.6 1.4 92
2019-04-09 23:00:00 9.2 14 Oeste 24 Oeste 1.1 951.6 1.5 91
2019-04-09 22:00:00 10 17 Oeste 24 Oeste 0.3 951.3 1.4 86
2019-04-09 21:00:00 10.1 21 Oeste 48 Oeste 0.2 950.2 0 83
2019-04-09 20:00:00 12.8 23 Oeste 41 Oeste 0 950.1 -0.1 60
2019-04-09 19:00:00 13.4 24 Oeste 39 Oeste 0 949.9 -0.5 58
2019-04-09 18:00:00 12.2 20 Oeste 41 Oeste 0 950.2 -0.7 70
2019-04-09 17:00:00 14.6 20 Noroeste 41 Noroeste 0 950.2 -1.2 56
2019-04-09 16:00:00 14.5 24 Oeste 42 Oeste 0 950.4 -1.6 52
2019-04-09 15:00:00 14.1 19 Oeste 39 Oeste 0.1 950.9 -1.1 59
2019-04-09 14:00:00 12.6 18 Oeste 37 Noroeste 0 951.4 -0.8 65
2019-04-09 13:00:00 10.4 23 Oeste 39 Oeste 0.1 952 -0.1 78
2019-04-09 12:00:00 12 8 Oeste 22 Noroeste 0 952 -0.1 67
2019-04-09 11:00:00 10.6 8 Oeste 15 Oeste 0 952.2 0.7 73
2019-04-09 10:00:00 10.1 8 Oeste 18 Oeste 0 952.1 1.2 79
2019-04-09 09:00:00 8.4 10 Oeste 18 Oeste 0 952.1 1.4 88
2019-04-09 08:00:00 6.4 10 Oeste 18 Oeste 0 951.5 0.7 92
2019-04-09 07:00:00 7.2 10 Sudoeste 18 Oeste 0 950.9 -0.1 93
2019-04-09 06:00:00 7.4 13 Oeste 18 Oeste 0 950.7 -0.4 92
2019-04-09 05:00:00 7.8 11 Oeste 18 Oeste 0 950.8 -0.3 90
2019-04-09 04:00:00 8.3 11 Oeste 18 Oeste 0 951 -0.2 90
2019-04-09 03:00:00 7.9 9 Sudoeste 13 Sudoeste 0 951.1 0.1 91
2019-04-09 02:00:00 8.5 0 Calma 8 Oeste 0 951.1 0.1 90
2019-04-09 01:00:00 10.5 6 Oeste 17 Oeste 0 951.2 0.7 83
2019-04-09 00:00:00 10.6 10 Oeste 17 Noroeste 0 951 1 82
2019-04-08 23:00:00 11.2 9 Oeste 28 Oeste 0 951 1.3 84
2019-04-08 22:00:00 11.1 8 Oeste 18 Noroeste 0 950.5 1 86
2019-04-08 21:00:00 12.3 10 Oeste 28 Oeste 0 950 0.5 83
2019-04-08 20:00:00 12.5 19 Oeste 30 Oeste 0.4 949.7 0.3 86
2019-04-08 19:00:00 13.7 17 Oeste 30 Oeste 0.4 949.5 -0.5 80
2019-04-08 18:00:00 14.5 15 Oeste 26 Oeste 0.2 949.5 -1.2 82
2019-04-08 17:00:00 15.2 12 Noroeste 22 Noroeste 0 949.4 -1.5 73
2019-04-08 16:00:00 14.7 15 Oeste 28 Noroeste 0 950 -1 74
2019-04-08 15:00:00 13.9 17 Noroeste 26 Noroeste 0 950.7 -0.3 75
2019-04-08 14:00:00 13.4 13 Oeste 21 Oeste 0 950.9 0 78
2019-04-08 13:00:00 13.5 12 Oeste 18 Oeste 0 951 0 79
2019-04-08 12:00:00 12.5 9 Oeste 24 Oeste 0 951 -0.1 84
2019-04-08 11:00:00 13.7 15 Oeste 24 Oeste 0 950.9 0.3 76
2019-04-08 10:00:00 11.8 2 Oeste 15 Sur 0 951 0.7 83
2019-04-08 09:00:00 10.6 4 Sudeste 9 Oeste 0 951.1 0.8 94
2019-04-08 08:00:00 10.1 6 Sudoeste 15 Sudoeste 0 950.6 0 94
2019-04-08 07:00:00 9.7 4 Sudeste 13 Este 0 950.3 -0.3 96
2019-04-08 06:00:00 10.5 4 Sudoeste 13 Oeste 0 950.3 -0.6 95
2019-04-08 05:00:00 11.1 8 Oeste 22 Oeste 0 950.6 -0.5 90
2019-04-08 04:00:00 10.8 8 Oeste 17 Sudoeste 0 950.6 -0.7 92
2019-04-08 03:00:00 10.9 0 Calma 18 Sudoeste 0 950.9 -0.2 94
2019-04-08 02:00:00 10.8 9 Sudoeste 15 Oeste 0 951.1 0.4 96
2019-04-08 01:00:00 10.3 4 Sur 8 Sur 0.1 951.3 0.6 98
2019-04-08 00:00:00 9.7 0 Calma 26 Noroeste 0.4 951.1 0.8 98
2019-04-07 23:00:00 9.8 0 Calma 4 Noroeste 0.9 950.7 0.4 98
2019-04-07 22:00:00 9.7 2 Norte 9 Sudeste 0.7 950.7 0.5 97
2019-04-07 21:00:00 9.5 8 Sudeste 17 Este 0.4 950.3 0.4 96
2019-04-07 20:00:00 9.7 12 Sudeste 18 Sudeste 0.9 950.3 0.5 96
2019-04-07 19:00:00 10.1 3 Sudeste 13 Sudoeste 0.2 950.2 0.5 93
2019-04-07 18:00:00 10.8 9 Sudoeste 28 Oeste 0.1 949.9 0 86
2019-04-07 17:00:00 11.2 4 Noroeste 18 Oeste 0.1 949.8 0 74
2019-04-07 16:00:00 11.7 6 Noroeste 24 Oeste 0 949.7 -0.1 68
2019-04-07 15:00:00 11.7 13 Oeste 30 Oeste 0 949.9 0.3 64
2019-04-07 14:00:00 11.6 14 Oeste 26 Noroeste 0 949.8 0.7 66
2019-04-07 13:00:00 10.6 3 Oeste 17 Este 0 949.8 1.4 73
2019-04-07 12:00:00 9.9 7 Este 18 Nordeste 0 949.6 1.6 78
2019-04-07 11:00:00 9.1 9 Oeste 18 Oeste 0 949.1 2 85
2019-04-07 10:00:00 8.1 9 Sudoeste 15 Sudoeste 0 948.4 1.5 88
2019-04-07 09:00:00 7.1 10 Sudoeste 15 Sudoeste 0.1 948 1.5 91
2019-04-07 08:00:00 7 6 Sudoeste 18 Sudoeste 0.1 947.1 0.4 89
2019-04-07 07:00:00 7 5 Oeste 15 Oeste 0 946.9 0.5 89
2019-04-07 06:00:00 6.9 7 Sudoeste 18 Sudoeste 0 946.5 0.2 89
2019-04-07 05:00:00 6.8 11 Oeste 26 Oeste 0.2 946.7 0.3 87
2019-04-07 04:00:00 7.2 18 Oeste 30 Oeste 0 946.4 -0.1 89
2019-04-07 03:00:00 6 2 Sudeste 28 Sudeste 0 946.3 0.3 92
2019-04-07 02:00:00 5.4 18 Sudeste 35 Este 0.1 946.4 0.6 92
2019-04-07 01:00:00 5.6 9 Este 17 Sudeste 4.2 946.5 1.4 96
2019-04-07 00:00:00 6.2 6 Este 15 Sudoeste 1 946 1.3 93
2019-04-06 23:00:00 5.9 2 Sur 21 Norte 3.8 945.8 1.8 88
2019-04-06 22:00:00 6.3 6 Sudeste 15 Sudeste 1.3 945.1 1.8 93
2019-04-06 21:00:00 6 5 Sudoeste 46 Noroeste 1.7 944.7 1.6 91
2019-04-06 20:00:00 7.3 26 Oeste 42 Oeste 1.4 944 2 87
2019-04-06 19:00:00 7.9 14 Oeste 32 Oeste 0.2 943.3 0.8 88
2019-04-06 18:00:00 7.2 14 Oeste 39 Noroeste 1.3 943.1 0.6 90
2019-04-06 17:00:00 11.3 24 Oeste 42 Oeste 0 942 -1.2 65
2019-04-06 16:00:00 11.5 27 Oeste 52 Oeste 0 942.5 -1 63
2019-04-06 15:00:00 10.6 22 Noroeste 45 Oeste 0 942.5 -1 70
2019-04-06 14:00:00 11 26 Oeste 46 Oeste 0.1 943.2 -0.4 75
2019-04-06 13:00:00 9.2 32 Oeste 52 Noroeste 0.8 943.5 -0.2 76
2019-04-06 12:00:00 9 10 Sudoeste 26 Oeste 0 943.5 0 76
2019-04-06 11:00:00 7.9 14 Oeste 21 Oeste 0 943.6 0.6 82
2019-04-06 10:00:00 6.7 5 Sur 18 Oeste 1.2 943.7 1.3 90
2019-04-06 09:00:00 6.5 2 Sudoeste 13 Sudeste 0 943.5 1.3 88
2019-04-06 08:00:00 6 3 Sudoeste 13 Sudoeste 0.9 943 1.2 89
2019-04-06 07:00:00 6 9 Sudoeste 17 Sudoeste 0.1 942.4 0.6 90
2019-04-06 06:00:00 6.1 8 Sudoeste 15 Sudoeste 0 942.2 0 86
2019-04-06 05:00:00 5.8 8 Sudeste 17 Sudeste 0 941.8 -0.4 90
2019-04-06 04:00:00 5.7 8 Oeste 21 Oeste 0.1 941.8 0 89
2019-04-06 03:00:00 6.5 10 Oeste 21 Oeste 0 942.2 0.9 80
2019-04-06 02:00:00 6.8 15 Oeste 35 Oeste 0 942.2 1.1 80
2019-04-06 01:00:00 7.2 21 Oeste 35 Oeste 0 941.8 1.6 76
2019-04-06 00:00:00 7.3 15 Oeste 26 Sudoeste 0 941.3 2.1 79
2019-04-05 23:00:00 7.4 18 Oeste 32 Oeste 0 941.1 2.4 74
2019-04-05 22:00:00 7.2 16 Oeste 30 Oeste 0 940.2 1.9 69
2019-04-05 21:00:00 7.5 5 Oeste 41 Oeste 0 939.2 1 63
2019-04-05 20:00:00 9.6 26 Oeste 42 Oeste 0 938.7 1.6 50
2019-04-05 19:00:00 9.9 22 Oeste 41 Oeste 0 938.3 0.4 62
2019-04-05 18:00:00 7.9 30 Oeste 59 Oeste 0 938.2 0.2 68
2019-04-05 17:00:00 12.6 22 Oeste 42 Oeste 0 937.1 -1.4 58
2019-04-05 16:00:00 9.1 4 Sudoeste 18 Norte 0.9 937.9 0.3 87
2019-04-05 15:00:00 7.7 2 Sur 18 Oeste 0.3 938 -0.4 88
2019-04-05 14:00:00 6.7 21 Oeste 55 Oeste 3.7 938.5 0.6 91
2019-04-05 13:00:00 8.9 8 Sudeste 13 Sudeste 0.3 937.6 0 85
2019-04-05 12:00:00 7.9 0 Calma 13 Noroeste 2.2 938.4 0.4 89
2019-04-05 11:00:00 7.7 11 Noroeste 15 Noroeste 0.4 937.9 -0.3 86
2019-04-05 10:00:00 7.6 5 Norte 11 Norte 0.1 937.6 -0.9 86
2019-04-05 09:00:00 7.3 3 Noroeste 11 Sudeste 0 938 -0.6 81
2019-04-05 08:00:00 6.6 4 Sudeste 8 Sudeste 0 938.2 -0.6 77
2019-04-05 07:00:00 6.1 7 Sur 15 Sudoeste 0 938.5 -0.8 78
2019-04-05 06:00:00 6.8 10 Sudoeste 22 Oeste 0 938.6 -0.9 76
2019-04-05 05:00:00 7.5 13 Oeste 21 Oeste 0 938.8 -0.4 71
2019-04-05 04:00:00 8.2 14 Oeste 26 Oeste 0 939.3 0.3 63
2019-04-05 03:00:00 8.3 17 Oeste 26 Oeste 0 939.5 0.4 56
2019-04-05 02:00:00 8.2 10 Oeste 18 Oeste 0 939.2 0.3 61
2019-04-05 01:00:00 7 13 Sudoeste 15 Sudoeste 0 939 0.6 67
2019-04-05 00:00:00 8.3 6 Sur 24 Oeste 0 939.1 1.5 63
2019-04-04 23:00:00 10.8 17 Oeste 26 Noroeste 0 938.9 1.7 53
2019-04-04 22:00:00 12 12 Sudoeste 26 Sudoeste 0 938.4 1.4 59
2019-04-04 21:00:00 12.3 19 Sudoeste 41 Sudoeste 0 937.6 0.7 56
2019-04-04 20:00:00 15.3 19 Sudoeste 33 Sudoeste 0 937.2 0.3 45
2019-04-04 19:00:00 17.6 20 Oeste 42 Oeste 0 937 -0.3 37
2019-04-04 18:00:00 18.3 21 Oeste 39 Noroeste 0 936.9 -0.9 32
2019-04-04 17:00:00 18.3 24 Oeste 39 Oeste 0 936.9 -1.5 33
2019-04-04 16:00:00 18.2 21 Oeste 35 Oeste 0 937.3 -1.6 32
2019-04-04 15:00:00 17.7 17 Oeste 32 Noroeste 0 937.8 -1.3 33
2019-04-04 14:00:00 16.9 17 Noroeste 28 Noroeste 0 938.4 -0.9 32
2019-04-04 13:00:00 15.8 17 Oeste 30 Oeste 0 938.9 -0.3 34
2019-04-04 12:00:00 14 4 Noroeste 15 Norte 0 939.1 0.2 46
2019-04-04 11:00:00 11 7 Norte 13 Norte 0 939.3 1 60
2019-04-04 10:00:00 8.4 0 Calma 8 Sur 0 939.2 1.4 72
2019-04-04 09:00:00 4.2 4 Oeste 5 Oeste 0 938.9 1.3 87
2019-04-04 08:00:00 2.4 0 Calma 8 Sur 0 938.3 0.8 87
2019-04-04 07:00:00 3 4 Oeste 8 Sudoeste 0 937.8 0.1 87
2019-04-04 06:00:00 4.1 0 Calma 13 Sudoeste 0 937.6 -0.6 85
2019-04-04 05:00:00 5.3 6 Sudoeste 11 Sudoeste 0 937.5 -1.1 84
2019-04-04 04:00:00 5.9 5 Sudoeste 13 Oeste 0 937.7 -1.5 85
2019-04-04 03:00:00 6.3 3 Oeste 8 Sudoeste 0 938.2 -1.2 84
2019-04-04 02:00:00 7.5 5 Oeste 17 Sudoeste 0 938.6 -1.1 81
2019-04-04 01:00:00 8.5 9 Sudoeste 13 Oeste 0 939.2 0 78
2019-04-04 00:00:00 10 11 Sur 15 Sur 0 939.4 0.5 70
2019-04-03 23:00:00 10.7 11 Sur 17 Sur 0 939.7 0.9 68
2019-04-03 22:00:00 12.4 10 Sudoeste 17 Oeste 0 939.2 0.5 60
2019-04-03 21:00:00 14.7 9 Oeste 32 Noroeste 0 938.9 0.1 51
2019-04-03 20:00:00 17.2 20 Noroeste 37 Oeste 0 938.8 -0.5 41
2019-04-03 19:00:00 19.2 21 Oeste 42 Noroeste 0 938.7 -1.5 40
2019-04-03 18:00:00 20.2 22 Oeste 42 Noroeste 0 938.8 -2.4 39
2019-04-03 17:00:00 20.7 26 Oeste 39 Oeste 0 939.3 -2.8 35
2019-04-03 16:00:00 20.7 21 Oeste 33 Noroeste 0 940.2 -2.7 41
2019-04-03 15:00:00 19.8 16 Oeste 32 Oeste 0 941.2 -2.4 44
2019-04-03 14:00:00 18.8 13 Oeste 26 Noroeste 0 942.1 -2 47
2019-04-03 13:00:00 17.1 3 Noroeste 13 Noroeste 0 942.9 -2 57
2019-04-03 12:00:00 15.1 2 Oeste 8 Oeste 0 943.6 -1.7 63
2019-04-03 11:00:00 12.3 0 Calma 4 Este 0 944.1 -1.5 75
2019-04-03 10:00:00 8.2 2 Noroeste 8 Norte 0 944.9 -1.2 89
2019-04-03 09:00:00 4.8 3 Oeste 4 Oeste 0 945.3 -1 97
2019-04-03 08:00:00 4 2 Sur 4 Sur 0 945.6 -1.3 95
2019-04-03 07:00:00 4.5 0 Calma 5 Sudoeste 0 946.1 -1.2 94
2019-04-03 06:00:00 5.3 3 Sudoeste 8 Sudoeste 0 946.3 -1.6 94
2019-04-03 05:00:00 5.9 5 Sudoeste -- -- 0 946.9 -1.5 94
2019-04-03 04:00:00 6.7 3 Sudoeste 5 Oeste 0 947.3 -1.3 93
2019-04-03 03:00:00 7.9 3 Sur 8 Sur 0 947.9 -0.7 92
2019-04-03 02:00:00 8.5 4 Sur 5 Sur 0 948.4 -0.1 90
2019-04-03 01:00:00 8.9 4 Oeste 8 Oeste 0 948.6 0.1 86
2019-04-03 00:00:00 11.1 0 Calma 9 Sudoeste 0 948.6 0.5 79
2019-04-02 23:00:00 12.6 8 Sudoeste 13 Sudoeste 0 948.5 0.5 73
2019-04-02 22:00:00 13 6 Sudoeste 15 Sudoeste 0 948.5 0.7 70
2019-04-02 21:00:00 14.6 10 Oeste 22 Oeste 0 948.1 0.3 61
2019-04-02 20:00:00 16.3 14 Oeste 26 Oeste 0 948 0 55
2019-04-02 19:00:00 18.1 21 Oeste 30 Oeste 0 947.8 -0.8 46
2019-04-02 18:00:00 19.2 13 Oeste 26 Oeste 0 947.8 -1.5 46
2019-04-02 17:00:00 19.7 10 Noroeste 21 Noroeste 0 948 -2.1 41
2019-04-02 16:00:00 19.1 7 Norte 18 Norte 0 948.6 -2.3 42
2019-04-02 15:00:00 18.7 7 Oeste 22 Noroeste 0 949.3 -2.2 38
2019-04-02 14:00:00 17.4 9 Noroeste 17 Oeste 0 950.1 -1.3 45
2019-04-02 13:00:00 15 3 Noroeste 11 Noroeste 0 950.9 -0.4 67
2019-04-02 12:00:00 11.6 2 Norte 8 Norte 0 951.5 0.3 83
2019-04-02 11:00:00 7.9 0 Calma 5 Noroeste 0 951.4 0.8 99
2019-04-02 10:00:00 6.8 2 Noroeste 5 Norte 0 951.3 0.8 99
2019-04-02 09:00:00 5.5 0 Calma 5 Norte 0 951.2 0.7 99
2019-04-02 08:00:00 4.7 0 Calma 8 Sur 0 950.6 -0.1 99
2019-04-02 07:00:00 3.8 0 Calma 4 Sur 0 950.5 -0.5 97
2019-04-02 06:00:00 4.3 0 Calma 4 Sur 0 950.5 -0.6 97
2019-04-02 05:00:00 4.9 3 Sur 8 Sur 0 950.7 -0.5 96
2019-04-02 04:00:00 6.1 3 Oeste 4 Oeste 0 951 -0.4 96
2019-04-02 03:00:00 6.9 3 Sur -- -- 0 951.1 -0.2 93
2019-04-02 02:00:00 8.2 3 Sudeste 8 Sur 0 951.2 0.4 94
2019-04-02 01:00:00 8.6 2 Sudeste 8 Sur 0 951.4 1.3 93
2019-04-02 00:00:00 9.1 0 Calma 5 Noroeste 0 951.3 2.3 93
2019-04-01 23:00:00 9.4 0 Calma 15 Sudoeste 0 950.8 2.5 90
2019-04-01 22:00:00 10.8 10 Sudoeste 21 Oeste 0 950.1 1.9 87
2019-04-01 21:00:00 12 7 Sudoeste 15 Oeste 0 949 0.8 80
2019-04-01 20:00:00 14.7 6 Oeste 17 Oeste 0 948.3 0.2 65
2019-04-01 19:00:00 15.1 7 Sudoeste 21 Oeste 0 948.2 -0.2 64
2019-04-01 18:00:00 14.7 13 Sudoeste 24 Oeste 0 948.2 0.1 67
2019-04-01 17:00:00 15 9 Noroeste 18 Noroeste 0 948.1 -0.4 68
2019-04-01 16:00:00 13.7 15 Sudoeste 39 Sudoeste 0.5 948.4 -0.5 70
2019-04-01 15:00:00 15.8 6 Noroeste 15 Noroeste 0 948.1 -0.9 59
2019-04-01 14:00:00 15.4 8 Sudoeste 24 Sudoeste 0 948.5 -0.1 60
2019-04-01 13:00:00 15.1 19 Oeste 26 Oeste 0 948.9 0.9 66
2019-04-01 12:00:00 13.6 0 Calma 11 Norte 0 949 1.3 79
2019-04-01 11:00:00 11.9 4 Norte 13 Norte 0 948.6 1.5 90
2019-04-01 10:00:00 10.7 0 Calma 5 Norte 0 948 1.3 90
2019-04-01 09:00:00 8.2 0 Calma -- -- 0 947.7 1 97
2019-04-01 08:00:00 7.7 3 Este 9 Sur 0.1 947.1 0.3 97
2019-04-01 07:00:00 8.1 4 Sur 13 Sudoeste 0 946.7 -0.3 97
2019-04-01 06:00:00 8.7 5 Sudoeste 8 Sudoeste 0 946.7 -0.7 97
2019-04-01 05:00:00 10.1 0 Calma 4 Este 0 946.8 -0.5 96
2019-04-01 04:00:00 9.9 3 Este 8 Sudeste 0.1 947 -0.2 95
2019-04-01 03:00:00 10.3 6 Sudeste 9 Este 0.5 947.4 0.6 96
2019-04-01 02:00:00 10.3 4 Sur 15 Oeste 1.6 947.3 1 97
2019-04-01 01:00:00 10.4 4 Oeste 18 Oeste 3.1 947.2 1.4 97
2019-04-01 00:00:00 9.9 6 Oeste 11 Oeste 0 946.8 1.8 96
2019-03-31 23:00:00 9.8 4 Oeste 9 Sur 0 946.3 1.7 95
2019-03-31 22:00:00 9.8 2 Sur -- -- 0 945.8 1.3 94
2019-03-31 21:00:00 11.4 2 Sudeste 11 Este 0 945 0.5 90
2019-03-31 20:00:00 12.9 7 Este 17 Sur 0 944.6 0.2 83
2019-03-31 19:00:00 12.8 5 Sudeste 15 Sudeste 0 944.5 -0.3 83
2019-03-31 18:00:00 13 0 Calma 5 Este 0.1 944.5 -0.9 79
2019-03-31 17:00:00 14 0 Calma 9 Sudeste 0 944.4 -1.5 76
2019-03-31 16:00:00 13.3 0 Calma 8 Sudoeste 0.6 944.8 -1.6 79
2019-03-31 15:00:00 12.5 4 Oeste 8 Oeste 0.4 945.4 -1.3 85
2019-03-31 14:00:00 12.3 5 Oeste 13 Oeste 0.6 945.9 -0.7 86
2019-03-31 13:00:00 12.5 3 Norte 18 Norte 0 946.4 0 79
2019-03-31 12:00:00 11.5 2 Norte 13 Noroeste 0.4 946.7 0.7 85
2019-03-31 11:00:00 11.2 3 Noroeste 8 Noroeste 0 946.6 0.6 82
2019-03-31 10:00:00 10.2 2 Sur 21 Norte 0 946.4 0.2 89
2019-03-31 09:00:00 9.6 10 Norte 18 Nordeste 0 946 -0.5 86
2019-03-31 08:00:00 9.4 3 Norte 11 Oeste 0 946 -1 90
2019-03-31 07:00:00 9.7 5 Sudeste 15 Norte 0 946.2 -1.7 93
2019-03-31 06:00:00 9.8 4 Sur 30 Nordeste 1.2 946.5 -1.7 91
2019-03-31 05:00:00 10.4 10 Norte 17 Norte 2.5 947 -2.1 93
2019-03-31 03:00:00 10.7 0 Calma 13 Norte 0 948.2 -1.5 94
2019-03-31 01:00:00 10.9 6 Noroeste 15 Oeste 2 949.1 -0.5 93
2019-03-31 00:00:00 12.5 6 Norte 15 Sudeste 0 949.3 0.2 76
2019-03-30 23:00:00 12.5 3 Oeste 22 Sur 0 949.7 1.3 74
2019-03-30 22:00:00 12.7 4 Sudeste 28 Sur 0 949.6 1.7 73
2019-03-30 21:00:00 13.4 3 Noroeste 13 Noroeste 0 949.1 1.1 70
2019-03-30 20:00:00 13.9 6 Norte 26 Noroeste 0 948.4 0.9 67
2019-03-30 19:00:00 16 14 Oeste 26 Oeste 0 947.9 0.3 59
2019-03-30 18:00:00 18.5 22 Oeste 30 Sudoeste 0 948 -0.1 51
2019-03-30 17:00:00 20.5 13 Sur 37 Sur 0 947.5 -1.7 41
2019-03-30 16:00:00 22 19 Sur 33 Sur 0 947.6 -2.6 38
2019-03-30 15:00:00 22.7 16 Sur 33 Sur 0 948.1 -3 37
2019-03-30 14:00:00 20.9 4 Norte 18 Este 0 949.2 -2.9 35
2019-03-30 13:00:00 19.8 4 Sur 18 Sudeste 0 950.2 -2.5 35
2019-03-30 12:00:00 17.5 2 Sudeste 17 Nordeste 0 951.1 -2.3 40
2019-03-30 11:00:00 15.4 7 Nordeste 18 Nordeste 0 952.1 -1.3 45
2019-03-30 10:00:00 11.7 10 Este 18 Este 0 952.7 -0.5 56
2019-03-30 09:00:00 8.4 3 Sudeste 8 Este 0 953.4 0.2 64
2019-03-30 08:00:00 5.9 4 Sudeste 13 Sudeste 0 953.4 -0.1 74
2019-03-30 07:00:00 3.7 6 Sudoeste 11 Sudoeste 0 953.2 -0.9 86
2019-03-30 06:00:00 5.1 5 Sudoeste 13 Sudeste 0 953.2 -1.1 80
2019-03-30 05:00:00 6 7 Sur 17 Sudeste 0 953.5 -1.1 81
2019-03-30 04:00:00 4.6 6 Sudeste 11 Sudeste 0 954.1 -0.8 91
2019-03-30 03:00:00 5.1 3 Sur 11 Sur 0 954.3 -1 88
2019-03-30 02:00:00 6 0 Calma 5 Oeste 0 954.6 -0.9 83
2019-03-30 01:00:00 8 3 Norte 11 Sudeste 0 954.9 -0.2 77
2019-03-30 00:00:00 9.9 5 Este 21 Sur 0 955.3 0.9 76
2019-03-29 23:00:00 10.8 4 Sur 22 Sur 0 955.5 1.7 66
2019-03-29 22:00:00 11.3 0 Calma 11 Noroeste 0 955.1 1.7 67
2019-03-29 21:00:00 12.3 6 Norte 18 Norte 0 954.4 1.3 65
2019-03-29 20:00:00 13.1 0 Calma 17 Oeste 0 953.8 0.8 63
2019-03-29 19:00:00 16.5 14 Sudoeste 26 Oeste 0 953.4 0.3 52
2019-03-29 18:00:00 18.5 17 Oeste 32 Oeste 0 953.1 -0.5 45
2019-03-29 17:00:00 19.5 10 Sudoeste 30 Oeste 0 953 -1.2 36
2019-03-29 16:00:00 20.4 17 Sur 33 Sudeste 0 953.1 -1.7 34
2019-03-29 15:00:00 20.6 14 Sur 26 Sur 0 953.6 -2.1 27
2019-03-29 14:00:00 19.2 5 Norte 18 Este 0 954.2 -2.3 27
2019-03-29 13:00:00 18 5 Sudeste 18 Este 0 954.8 -2.2 29
2019-03-29 12:00:00 16 6 Este 18 Este 0 955.7 -1.3 32
2019-03-29 11:00:00 13.3 4 Este 15 Este 0 956.5 -0.4 39
2019-03-29 10:00:00 11.4 7 Este 17 Este 0 957 0.5 42
2019-03-29 09:00:00 7.9 4 Este 11 Este 0 957 0.6 50
2019-03-29 08:00:00 2.3 3 Sur 11 Sur 0 956.9 0.4 69
2019-03-29 07:00:00 0 5 Sur 8 Sur 0 956.5 0.1 74
2019-03-29 06:00:00 1 0 Calma 5 Norte 0 956.4 -0.3 69
2019-03-29 05:00:00 0.7 4 Sudeste 8 Sur 0 956.5 -0.5 68
2019-03-29 04:00:00 1 3 Sur 8 Sur 0 956.4 -0.6 69
2019-03-29 03:00:00 1.9 2 Norte 8 Sur 0 956.7 -0.6 64
2019-03-29 02:00:00 2.3 5 Sur 8 Sur 0 957 -0.5 68
2019-03-29 01:00:00 4.1 2 Sur 9 Sur 0 957 -0.2 66
2019-03-29 00:00:00 6.1 3 Sudeste 5 Sur 0 957.3 0.7 67
2019-03-28 23:00:00 7.9 0 Calma 15 Sur 0 957.5 2.1 62
2019-03-28 22:00:00 9.7 3 Sur 17 Este 0 957.2 2.3 59
2019-03-28 21:00:00 11.3 5 Sudoeste 28 Sur 0 956.6 2.2 49
2019-03-28 20:00:00 12.8 13 Sudoeste 33 Sur 0 955.4 0.9 46
2019-03-28 19:00:00 15.4 24 Sur 32 Sur 0 954.9 -0.1 42
2019-03-28 18:00:00 17.7 18 Sur 30 Sur 0 954.4 -1.2 30
2019-03-28 17:00:00 19.3 14 Sur 26 Sur 0 954.5 -1.9 24
2019-03-28 16:00:00 19.3 6 Sudoeste 24 Sur 0 955 -2.3 22
2019-03-28 15:00:00 19.2 9 Sur 21 Este 0 955.6 -2.7 20
2019-03-28 14:00:00 17.5 5 Nordeste 18 Nordeste 0 956.4 -2.5 22
2019-03-28 13:00:00 16.3 4 Sudeste 18 Este 0 957.3 -1.9 26
2019-03-28 12:00:00 15.1 10 Nordeste 30 Sudeste 0 958.3 -0.7 27
2019-03-28 11:00:00 13.6 8 Sudeste 18 Este 0 958.9 0.3 31
2019-03-28 10:00:00 10.3 0 Calma 8 Este 0 959.2 1.1 46
2019-03-28 09:00:00 8 2 Este 13 Sur 0 959 1.5 53
2019-03-28 08:00:00 3.8 0 Calma 15 Sudeste 0 958.6 1.3 75
2019-03-28 07:00:00 1.5 7 Sur 13 Sur 0 958.1 1 84
2019-03-28 06:00:00 2 0 Calma 11 Sur 0 957.5 0.1 88
2019-03-28 05:00:00 1.7 4 Sudoeste 13 Sudoeste 0 957.3 -0.3 90
2019-03-28 04:00:00 2.4 10 Sudoeste 13 Sudoeste 0 957.1 -0.8 93
2019-03-28 03:00:00 3.2 0 Calma 15 Oeste 0 957.4 -0.4 92
2019-03-28 02:00:00 3.9 4 Sur 8 Sur 0 957.6 0.3 88
2019-03-28 01:00:00 4.5 3 Sudoeste 11 Sur 0 957.9 1.1 90
2019-03-28 00:00:00 6.2 0 Calma 11 Sur 0 957.8 2.1 82
2019-03-27 23:00:00 7.4 3 Sur 8 Sur 0 957.3 2.7 77
2019-03-27 22:00:00 9 6 Noroeste 18 Sudoeste 0 956.8 4.1 76
2019-03-27 21:00:00 10.7 15 Sudoeste 28 Sudoeste 0 955.7 3.5 68
2019-03-27 20:00:00 12.3 24 Sudoeste 37 Nordeste 0 954.6 2.6 61
2019-03-27 19:00:00 17.2 24 Nordeste 39 Nordeste 0 952.7 0.4 26
2019-03-27 18:00:00 19.1 19 Nordeste 35 Nordeste 0 952.2 -0.5 21
2019-03-27 17:00:00 20 6 Noroeste 24 Oeste 0 952 -1.1 22
2019-03-27 16:00:00 19.3 10 Noroeste 28 Sur 0 952.3 -1.2 23
2019-03-27 15:00:00 19.3 6 Sudoeste 21 Oeste 0 952.7 -1.1 23
2019-03-27 14:00:00 18.4 6 Sudoeste 24 Oeste 0 953.1 -0.6 25
2019-03-27 13:00:00 17.3 4 Sudeste 17 Sudeste 0 953.5 0 24
2019-03-27 12:00:00 15.5 6 Nordeste 18 Nordeste 0 953.8 0.5 27
2019-03-27 11:00:00 14.4 5 Este 33 Nordeste 0 953.7 0.8 31
2019-03-27 10:00:00 12.9 18 Nordeste 33 Norte 0 953.5 1.1 34
2019-03-27 09:00:00 10.6 14 Nordeste 32 Nordeste 0 953.3 1.3 35
2019-03-27 08:00:00 8.3 19 Nordeste 32 Nordeste 0 952.9 1.2 38
2019-03-27 07:00:00 7.7 14 Nordeste 26 Nordeste 0 952.4 1 37
2019-03-27 06:00:00 7.9 15 Nordeste 28 Nordeste 0 952 0.6 36
2019-03-27 05:00:00 8.5 15 Nordeste 30 Norte 0 951.7 0.3 38
2019-03-27 04:00:00 9.5 17 Nordeste 32 Nordeste 0 951.4 0.3 39
2019-03-27 03:00:00 9.1 13 Nordeste 35 Nordeste 0 951.4 0.8 46
2019-03-27 02:00:00 9.7 0 Calma 8 Este 0 951.4 0.8 56
2019-03-27 01:00:00 11 3 Nordeste 26 Norte 0 951.1 1 52
2019-03-27 00:00:00 12.3 14 Nordeste 33 Nordeste 0 950.6 1.4 52